sensor_id;sensor_type;location;lat;lon;timestamp;pressure;altitude;pressure_sealevel;temperature;humidity
6218;BME280;3142;48.206;11.550;2023-02-20T00:01:32;96749.59;;;9.73;63.31
6218;BME280;3142;48.206;11.550;2023-02-20T00:03:58;96761.84;;;9.72;63.26
6218;BME280;3142;48.206;11.550;2023-02-20T00:06:25;96755.50;;;9.75;63.59
6218;BME280;3142;48.206;11.550;2023-02-20T00:08:51;96756.31;;;9.75;63.51
6218;BME280;3142;48.206;11.550;2023-02-20T00:11:18;96753.88;;;9.74;62.63
6218;BME280;3142;48.206;11.550;2023-02-20T00:13:45;96756.47;;;9.74;63.50
6218;BME280;3142;48.206;11.550;2023-02-20T00:16:13;96754.69;;;9.74;63.07
6218;BME280;3142;48.206;11.550;2023-02-20T00:18:39;96761.72;;;9.74;63.23
6218;BME280;3142;48.206;11.550;2023-02-20T00:21:06;96764.47;;;9.72;63.27
6218;BME280;3142;48.206;11.550;2023-02-20T00:23:33;96753.06;;;9.73;63.76
6218;BME280;3142;48.206;11.550;2023-02-20T00:25:59;96761.22;;;9.70;63.42
6218;BME280;3142;48.206;11.550;2023-02-20T00:28:26;96760.91;;;9.73;63.10
6218;BME280;3142;48.206;11.550;2023-02-20T00:30:54;96758.28;;;9.73;63.44
6218;BME280;3142;48.206;11.550;2023-02-20T00:33:21;96760.38;;;9.70;62.83
6218;BME280;3142;48.206;11.550;2023-02-20T00:35:48;96766.44;;;9.70;62.66
6218;BME280;3142;48.206;11.550;2023-02-20T00:38:14;96756.97;;;9.69;62.58
6218;BME280;3142;48.206;11.550;2023-02-20T00:40:41;96751.91;;;9.68;62.99
6218;BME280;3142;48.206;11.550;2023-02-20T00:43:08;96753.88;;;9.66;63.11
6218;BME280;3142;48.206;11.550;2023-02-20T00:45:34;96755.50;;;9.67;62.92
6218;BME280;3142;48.206;11.550;2023-02-20T00:48:00;96753.25;;;9.64;62.88
6218;BME280;3142;48.206;11.550;2023-02-20T00:50:28;96752.44;;;9.63;62.97
6218;BME280;3142;48.206;11.550;2023-02-20T00:52:55;96749.81;;;9.63;63.66
6218;BME280;3142;48.206;11.550;2023-02-20T00:55:21;96749.00;;;9.63;62.96
6218;BME280;3142;48.206;11.550;2023-02-20T00:57:48;96761.41;;;9.61;64.04
6218;BME280;3142;48.206;11.550;2023-02-20T01:00:18;96752.91;;;9.59;63.33
6218;BME280;3142;48.206;11.550;2023-02-20T01:02:45;96759.63;;;9.61;64.08
6218;BME280;3142;48.206;11.550;2023-02-20T01:05:12;96758.94;;;9.59;64.32
6218;BME280;3142;48.206;11.550;2023-02-20T01:07:40;96746.72;;;9.60;63.54
6218;BME280;3142;48.206;11.550;2023-02-20T01:10:07;96751.09;;;9.59;63.27
6218;BME280;3142;48.206;11.550;2023-02-20T01:12:34;96761.25;;;9.62;63.35
6218;BME280;3142;48.206;11.550;2023-02-20T01:15:00;96757.31;;;9.58;63.55
6218;BME280;3142;48.206;11.550;2023-02-20T01:17:27;96763.53;;;9.57;63.85
6218;BME280;3142;48.206;11.550;2023-02-20T01:19:53;96761.25;;;9.54;63.15
6218;BME280;3142;48.206;11.550;2023-02-20T01:22:20;96756.38;;;9.51;63.40
6218;BME280;3142;48.206;11.550;2023-02-20T01:24:47;96748.34;;;9.53;64.33
6218;BME280;3142;48.206;11.550;2023-02-20T01:27:14;96751.97;;;9.52;64.02
6218;BME280;3142;48.206;11.550;2023-02-20T01:29:41;96747.88;;;9.49;64.46
6218;BME280;3142;48.206;11.550;2023-02-20T01:32:09;96747.88;;;9.49;63.60
6218;BME280;3142;48.206;11.550;2023-02-20T01:34:36;96749.34;;;9.52;64.26
6218;BME280;3142;48.206;11.550;2023-02-20T01:37:02;96747.88;;;9.49;64.19
6218;BME280;3142;48.206;11.550;2023-02-20T01:39:29;96736.63;;;9.48;64.56
6218;BME280;3142;48.206;11.550;2023-02-20T01:41:59;96746.09;;;9.49;64.46
6218;BME280;3142;48.206;11.550;2023-02-20T01:44:28;96751.66;;;9.46;64.70
6218;BME280;3142;48.206;11.550;2023-02-20T01:46:56;96751.31;;;9.49;65.06
6218;BME280;3142;48.206;11.550;2023-02-20T01:49:27;96760.59;;;9.52;64.71
6218;BME280;3142;48.206;11.550;2023-02-20T01:51:58;96747.25;;;9.47;64.93
6218;BME280;3142;48.206;11.550;2023-02-20T01:54:26;96748.53;;;9.43;65.24
6218;BME280;3142;48.206;11.550;2023-02-20T01:56:56;96743.97;;;9.45;65.10
6218;BME280;3142;48.206;11.550;2023-02-20T01:59:26;96736.63;;;9.48;65.05
6218;BME280;3142;48.206;11.550;2023-02-20T02:01:55;96736.94;;;9.45;64.33
6218;BME280;3142;48.206;11.550;2023-02-20T02:04:21;96726.66;;;9.44;64.89
6218;BME280;3142;48.206;11.550;2023-02-20T02:06:51;96725.84;;;9.43;65.12
6218;BME280;3142;48.206;11.550;2023-02-20T02:09:25;96729.09;;;9.45;65.40
6218;BME280;3142;48.206;11.550;2023-02-20T02:11:54;96729.78;;;9.47;65.91
6218;BME280;3142;48.206;11.550;2023-02-20T02:14:21;96723.41;;;9.42;65.80
6218;BME280;3142;48.206;11.550;2023-02-20T02:17:12;96723.28;;;9.35;64.80
6218;BME280;3142;48.206;11.550;2023-02-20T02:20:07;96731.28;;;9.34;66.52
6218;BME280;3142;48.206;11.550;2023-02-20T02:25:47;96739.09;;;9.34;66.55
6218;BME280;3142;48.206;11.550;2023-02-20T02:28:47;96734.69;;;9.34;66.51
6218;BME280;3142;48.206;11.550;2023-02-20T02:31:35;96729.13;;;9.37;65.58
6218;BME280;3142;48.206;11.550;2023-02-20T02:34:32;96732.56;;;9.38;65.76
6218;BME280;3142;48.206;11.550;2023-02-20T02:37:07;96730.28;;;9.35;66.23
6218;BME280;3142;48.206;11.550;2023-02-20T02:39:43;96724.25;;;9.34;66.60
6218;BME280;3142;48.206;11.550;2023-02-20T02:42:17;96717.22;;;9.35;66.02
6218;BME280;3142;48.206;11.550;2023-02-20T02:44:49;96723.44;;;9.34;66.85
6218;BME280;3142;48.206;11.550;2023-02-20T02:47:22;96728.31;;;9.37;65.66
6218;BME280;3142;48.206;11.550;2023-02-20T02:49:54;96723.44;;;9.34;65.89
6218;BME280;3142;48.206;11.550;2023-02-20T02:52:25;96726.22;;;9.32;66.07
6218;BME280;3142;48.206;11.550;2023-02-20T02:55:11;96712.19;;;9.25;66.61
6218;BME280;3142;48.206;11.550;2023-02-20T02:57:38;96716.25;;;9.28;66.26
6218;BME280;3142;48.206;11.550;2023-02-20T03:00:08;96715.28;;;9.29;67.23
6218;BME280;3142;48.206;11.550;2023-02-20T03:02:43;96708.88;;;9.31;66.25
6218;BME280;3142;48.206;11.550;2023-02-20T03:05:13;96717.88;;;9.37;65.81
6218;BME280;3142;48.206;11.550;2023-02-20T03:07:44;96720.00;;;9.33;66.61
6218;BME280;3142;48.206;11.550;2023-02-20T03:10:16;96725.22;;;9.33;66.27
6218;BME280;3142;48.206;11.550;2023-02-20T03:12:54;96733.53;;;9.29;66.28
6218;BME280;3142;48.206;11.550;2023-02-20T03:15:28;96734.88;;;9.33;66.22
6218;BME280;3142;48.206;11.550;2023-02-20T03:18:04;96732.09;;;9.34;66.65
6218;BME280;3142;48.206;11.550;2023-02-20T03:20:36;96719.50;;;9.30;66.55
6218;BME280;3142;48.206;11.550;2023-02-20T03:23:08;96728.16;;;9.30;66.91
6218;BME280;3142;48.206;11.550;2023-02-20T03:25:38;96716.59;;;9.33;66.12
6218;BME280;3142;48.206;11.550;2023-02-20T03:28:08;96728.16;;;9.30;66.00
6218;BME280;3142;48.206;11.550;2023-02-20T03:30:39;96713.97;;;9.33;66.61
6218;BME280;3142;48.206;11.550;2023-02-20T03:33:10;96707.59;;;9.27;66.11
6218;BME280;3142;48.206;11.550;2023-02-20T03:35:56;96712.69;;;9.20;67.00
6218;BME280;3142;48.206;11.550;2023-02-20T03:38:45;96707.28;;;9.22;66.27
6218;BME280;3142;48.206;11.550;2023-02-20T03:41:31;96715.13;;;9.22;67.07
6218;BME280;3142;48.206;11.550;2023-02-20T03:44:18;96704.84;;;9.20;67.15
6218;BME280;3142;48.206;11.550;2023-02-20T03:46:47;96708.59;;;9.18;66.57
6218;BME280;3142;48.206;11.550;2023-02-20T03:49:18;96713.00;;;9.17;67.16
6218;BME280;3142;48.206;11.550;2023-02-20T03:51:45;96707.63;;;9.11;67.60
6218;BME280;3142;48.206;11.550;2023-02-20T03:54:13;96712.03;;;9.10;66.69
6218;BME280;3142;48.206;11.550;2023-02-20T03:56:42;96719.41;;;9.07;66.80
6218;BME280;3142;48.206;11.550;2023-02-20T03:59:12;96729.84;;;9.07;67.32
6218;BME280;3142;48.206;11.550;2023-02-20T04:01:40;96719.06;;;9.10;67.62
6218;BME280;3142;48.206;11.550;2023-02-20T04:04:11;96724.78;;;9.05;68.01
6218;BME280;3142;48.206;11.550;2023-02-20T04:06:40;96730.47;;;9.09;67.56
6218;BME280;3142;48.206;11.550;2023-02-20T04:09:09;96732.28;;;9.08;66.62
6218;BME280;3142;48.206;11.550;2023-02-20T04:11:42;96734.38;;;9.13;66.70
6218;BME280;3142;48.206;11.550;2023-02-20T04:14:11;96732.28;;;9.08;67.72
6218;BME280;3142;48.206;11.550;2023-02-20T04:16:43;96726.06;;;9.09;67.22
6218;BME280;3142;48.206;11.550;2023-02-20T04:19:11;96726.59;;;9.05;66.60
6218;BME280;3142;48.206;11.550;2023-02-20T04:21:40;96731.94;;;9.03;66.50
6218;BME280;3142;48.206;11.550;2023-02-20T04:24:10;96728.50;;;9.03;67.29
6218;BME280;3142;48.206;11.550;2023-02-20T04:26:39;96722.34;;;8.96;66.58
6218;BME280;3142;48.206;11.550;2023-02-20T04:29:05;96727.38;;;8.97;67.96
6218;BME280;3142;48.206;11.550;2023-02-20T04:31:32;96722.50;;;8.94;67.08
6218;BME280;3142;48.206;11.550;2023-02-20T04:33:59;96724.59;;;8.90;67.80
6218;BME280;3142;48.206;11.550;2023-02-20T04:36:26;96725.44;;;8.91;67.99
6218;BME280;3142;48.206;11.550;2023-02-20T04:38:52;96726.41;;;8.90;67.77
6218;BME280;3142;48.206;11.550;2023-02-20T04:41:19;96721.19;;;8.90;67.69
6218;BME280;3142;48.206;11.550;2023-02-20T04:43:47;96721.50;;;8.87;67.62
6218;BME280;3142;48.206;11.550;2023-02-20T04:46:14;96722.50;;;8.86;67.94
6218;BME280;3142;48.206;11.550;2023-02-20T04:48:40;96723.00;;;8.81;67.27
6218;BME280;3142;48.206;11.550;2023-02-20T04:51:07;96729.19;;;8.80;68.11
6218;BME280;3142;48.206;11.550;2023-02-20T04:53:35;96723.16;;;8.80;67.95
6218;BME280;3142;48.206;11.550;2023-02-20T04:56:01;96720.03;;;8.76;68.04
6218;BME280;3142;48.206;11.550;2023-02-20T04:58:27;96715.31;;;8.72;68.12
6218;BME280;3142;48.206;11.550;2023-02-20T05:00:55;96712.06;;;8.70;67.42
6218;BME280;3142;48.206;11.550;2023-02-20T05:03:22;96714.03;;;8.68;68.30
6218;BME280;3142;48.206;11.550;2023-02-20T05:05:48;96710.59;;;8.67;68.48
6218;BME280;3142;48.206;11.550;2023-02-20T05:08:15;96713.66;;;8.63;67.88
6218;BME280;3142;48.206;11.550;2023-02-20T05:10:41;96721.19;;;8.57;68.35
6218;BME280;3142;48.206;11.550;2023-02-20T05:13:07;96718.09;;;8.54;68.18
6218;BME280;3142;48.206;11.550;2023-02-20T05:15:34;96721.69;;;8.53;67.89
6218;BME280;3142;48.206;11.550;2023-02-20T05:18:02;96715.13;;;8.49;69.07
6218;BME280;3142;48.206;11.550;2023-02-20T05:20:28;96725.72;;;8.47;68.13
6218;BME280;3142;48.206;11.550;2023-02-20T05:23:15;96725.56;;;8.49;68.89
6218;BME280;3142;48.206;11.550;2023-02-20T05:25:41;96735.19;;;8.48;68.85
6218;BME280;3142;48.206;11.550;2023-02-20T05:28:07;96732.72;;;8.47;68.04
6218;BME280;3142;48.206;11.550;2023-02-20T05:30:34;96736.47;;;8.44;68.10
6218;BME280;3142;48.206;11.550;2023-02-20T05:33:02;96741.38;;;8.47;69.06
6218;BME280;3142;48.206;11.550;2023-02-20T05:35:28;96735.50;;;8.45;68.32
6218;BME280;3142;48.206;11.550;2023-02-20T05:37:55;96737.28;;;8.45;67.67
6218;BME280;3142;48.206;11.550;2023-02-20T05:40:21;96736.81;;;8.41;68.89
6218;BME280;3142;48.206;11.550;2023-02-20T05:42:48;96729.81;;;8.42;68.61
6218;BME280;3142;48.206;11.550;2023-02-20T05:45:14;96733.38;;;8.41;68.08
6218;BME280;3142;48.206;11.550;2023-02-20T05:47:41;96736.16;;;8.39;68.71
6218;BME280;3142;48.206;11.550;2023-02-20T05:50:08;96726.88;;;8.37;67.93
6218;BME280;3142;48.206;11.550;2023-02-20T05:52:35;96731.53;;;8.33;68.85
6218;BME280;3142;48.206;11.550;2023-02-20T05:55:02;96741.31;;;8.31;68.98
6218;BME280;3142;48.206;11.550;2023-02-20T05:57:29;96739.69;;;8.30;69.07
6218;BME280;3142;48.206;11.550;2023-02-20T05:59:55;96739.19;;;8.26;69.00
6218;BME280;3142;48.206;11.550;2023-02-20T06:02:21;96744.09;;;8.29;68.60
6218;BME280;3142;48.206;11.550;2023-02-20T06:04:48;96749.28;;;8.29;68.56
6218;BME280;3142;48.206;11.550;2023-02-20T06:07:16;96758.91;;;8.29;68.30
6218;BME280;3142;48.206;11.550;2023-02-20T06:09:43;96763.63;;;8.25;68.22
6218;BME280;3142;48.206;11.550;2023-02-20T06:12:10;96760.88;;;8.27;68.36
6218;BME280;3142;48.206;11.550;2023-02-20T06:14:36;96765.09;;;8.28;67.60
6218;BME280;3142;48.206;11.550;2023-02-20T06:17:03;96759.72;;;8.29;67.65
6218;BME280;3142;48.206;11.550;2023-02-20T06:19:29;96762.34;;;8.29;67.78
6218;BME280;3142;48.206;11.550;2023-02-20T06:21:56;96765.09;;;8.28;67.50
6218;BME280;3142;48.206;11.550;2023-02-20T06:24:25;96765.91;;;8.28;68.75
6218;BME280;3142;48.206;11.550;2023-02-20T06:26:51;96770.00;;;8.31;67.34
6218;BME280;3142;48.206;11.550;2023-02-20T06:29:18;96762.97;;;8.31;68.40
6218;BME280;3142;48.206;11.550;2023-02-20T06:31:45;96761.03;;;8.33;67.88
6218;BME280;3142;48.206;11.550;2023-02-20T06:34:13;96765.59;;;8.31;67.10
6218;BME280;3142;48.206;11.550;2023-02-20T06:36:40;96761.50;;;8.29;67.49
6218;BME280;3142;48.206;11.550;2023-02-20T06:39:08;96761.50;;;8.29;67.06
6218;BME280;3142;48.206;11.550;2023-02-20T06:41:37;96760.22;;;8.25;68.13
6218;BME280;3142;48.206;11.550;2023-02-20T06:44:04;96761.47;;;8.21;68.17
6218;BME280;3142;48.206;11.550;2023-02-20T06:46:30;96768.03;;;8.25;68.31
6218;BME280;3142;48.206;11.550;2023-02-20T06:48:57;96766.56;;;8.22;67.52
6218;BME280;3142;48.206;11.550;2023-02-20T06:51:25;96766.69;;;8.21;67.22
6218;BME280;3142;48.206;11.550;2023-02-20T06:53:52;96774.88;;;8.26;67.26
6218;BME280;3142;48.206;11.550;2023-02-20T06:56:20;96771.13;;;8.28;67.66
6218;BME280;3142;48.206;11.550;2023-02-20T06:58:50;96777.31;;;8.27;68.29
6218;BME280;3142;48.206;11.550;2023-02-20T07:01:19;96777.81;;;8.23;67.01
6218;BME280;3142;48.206;11.550;2023-02-20T07:03:46;96774.38;;;8.22;67.21
6218;BME280;3142;48.206;11.550;2023-02-20T07:06:14;96775.84;;;8.25;66.95
6218;BME280;3142;48.206;11.550;2023-02-20T07:08:40;96782.69;;;8.26;67.15
6218;BME280;3142;48.206;11.550;2023-02-20T07:11:07;96789.88;;;8.32;67.95
6218;BME280;3142;48.206;11.550;2023-02-20T07:13:33;96788.06;;;8.32;66.77
6218;BME280;3142;48.206;11.550;2023-02-20T07:16:01;96790.69;;;8.32;67.15
6218;BME280;3142;48.206;11.550;2023-02-20T07:18:28;96794.78;;;8.35;66.26
6218;BME280;3142;48.206;11.550;2023-02-20T07:20:55;96795.16;;;8.40;67.01
6218;BME280;3142;48.206;11.550;2023-02-20T07:23:22;96795.81;;;8.42;67.53
6218;BME280;3142;48.206;11.550;2023-02-20T07:25:48;96795.31;;;8.47;67.34
6218;BME280;3142;48.206;11.550;2023-02-20T07:28:15;96796.78;;;8.49;66.53
6218;BME280;3142;48.206;11.550;2023-02-20T07:30:43;96787.03;;;8.51;66.44
6218;BME280;3142;48.206;11.550;2023-02-20T07:33:11;96791.28;;;8.52;67.12
6218;BME280;3142;48.206;11.550;2023-02-20T07:35:37;96792.25;;;8.51;66.19
6218;BME280;3142;48.206;11.550;2023-02-20T07:38:04;96796.31;;;8.54;66.38
6218;BME280;3142;48.206;11.550;2023-02-20T07:40:30;96793.06;;;8.52;65.95
6218;BME280;3142;48.206;11.550;2023-02-20T07:42:57;96780.03;;;8.52;66.35
6218;BME280;3142;48.206;11.550;2023-02-20T07:45:23;96784.75;;;8.56;66.54
6218;BME280;3142;48.206;11.550;2023-02-20T07:47:50;96792.25;;;8.59;66.55
6218;BME280;3142;48.206;11.550;2023-02-20T07:50:18;96781.84;;;8.68;65.69
6218;BME280;3142;48.206;11.550;2023-02-20T07:52:45;96770.41;;;9.42;64.85
6218;BME280;3142;48.206;11.550;2023-02-20T07:55:12;96763.34;;;10.14;62.04
6218;BME280;3142;48.206;11.550;2023-02-20T07:57:39;96765.13;;;10.53;61.14
6218;BME280;3142;48.206;11.550;2023-02-20T08:00:06;96761.59;;;10.46;61.40
6218;BME280;3142;48.206;11.550;2023-02-20T08:02:33;96755.88;;;10.42;60.57
6218;BME280;3142;48.206;11.550;2023-02-20T08:05:00;96764.03;;;10.47;60.11
6218;BME280;3142;48.206;11.550;2023-02-20T08:07:27;96752.75;;;11.15;58.73
6218;BME280;3142;48.206;11.550;2023-02-20T08:09:54;96744.97;;;11.22;58.32
6218;BME280;3142;48.206;11.550;2023-02-20T08:12:20;96748.47;;;11.00;58.21
6218;BME280;3142;48.206;11.550;2023-02-20T08:14:48;96739.00;;;11.66;57.22
6218;BME280;3142;48.206;11.550;2023-02-20T08:17:15;96735.44;;;12.18;54.67
6218;BME280;3142;48.206;11.550;2023-02-20T08:19:41;96726.72;;;11.81;55.43
6218;BME280;3142;48.206;11.550;2023-02-20T08:22:08;96740.25;;;11.40;57.01
6218;BME280;3142;48.206;11.550;2023-02-20T08:24:35;96728.72;;;11.79;55.91
6218;BME280;3142;48.206;11.550;2023-02-20T08:27:04;96737.59;;;12.29;54.11
6218;BME280;3142;48.206;11.550;2023-02-20T08:29:31;96733.41;;;12.70;53.07
6218;BME280;3142;48.206;11.550;2023-02-20T08:31:57;96729.09;;;13.05;51.97
6218;BME280;3142;48.206;11.550;2023-02-20T08:34:24;96717.91;;;13.46;50.06
6218;BME280;3142;48.206;11.550;2023-02-20T08:36:50;96724.31;;;13.16;51.26
6218;BME280;3142;48.206;11.550;2023-02-20T08:39:16;96721.72;;;13.44;50.73
6218;BME280;3142;48.206;11.550;2023-02-20T08:41:45;96721.13;;;12.56;51.39
6218;BME280;3142;48.206;11.550;2023-02-20T08:44:13;96728.88;;;12.07;53.62
6218;BME280;3142;48.206;11.550;2023-02-20T08:46:44;96710.25;;;11.72;54.22
6218;BME280;3142;48.206;11.550;2023-02-20T08:49:11;96713.31;;;11.46;54.29
6218;BME280;3142;48.206;11.550;2023-02-20T08:51:37;96711.84;;;11.29;55.41
6218;BME280;3142;48.206;11.550;2023-02-20T08:54:04;96709.91;;;11.08;55.51
6218;BME280;3142;48.206;11.550;2023-02-20T08:56:30;96710.00;;;11.00;55.87
6218;BME280;3142;48.206;11.550;2023-02-20T08:58:58;96718.13;;;11.05;56.25
6218;BME280;3142;48.206;11.550;2023-02-20T09:01:24;96717.34;;;11.19;56.14
6218;BME280;3142;48.206;11.550;2023-02-20T09:03:51;96707.34;;;12.11;54.65
6218;BME280;3142;48.206;11.550;2023-02-20T09:06:17;96683.78;;;13.03;51.46
6218;BME280;3142;48.206;11.550;2023-02-20T09:08:43;96673.47;;;13.58;49.42
6218;BME280;3142;48.206;11.550;2023-02-20T09:11:10;96675.66;;;13.96;48.74
6218;BME280;3142;48.206;11.550;2023-02-20T09:13:41;96666.25;;;14.28;47.33
6218;BME280;3142;48.206;11.550;2023-02-20T09:16:08;96670.56;;;14.48;47.09
6218;BME280;3142;48.206;11.550;2023-02-20T09:18:35;96670.63;;;14.68;46.27
6218;BME280;3142;48.206;11.550;2023-02-20T09:21:01;96658.44;;;14.94;46.09
6218;BME280;3142;48.206;11.550;2023-02-20T09:23:28;96665.75;;;15.05;45.62
6218;BME280;3142;48.206;11.550;2023-02-20T09:25:54;96661.06;;;15.20;45.79
6218;BME280;3142;48.206;11.550;2023-02-20T09:28:21;96667.34;;;15.39;45.13
6218;BME280;3142;48.206;11.550;2023-02-20T09:30:47;96662.66;;;15.61;44.60
6218;BME280;3142;48.206;11.550;2023-02-20T09:33:15;96676.84;;;15.47;43.98
6218;BME280;3142;48.206;11.550;2023-02-20T09:35:42;96683.16;;;15.52;44.84
6218;BME280;3142;48.206;11.550;2023-02-20T09:38:08;96675.59;;;15.82;44.07
6218;BME280;3142;48.206;11.550;2023-02-20T09:40:34;96660.63;;;16.14;43.91
6218;BME280;3142;48.206;11.550;2023-02-20T09:43:08;96666.78;;;16.40;43.33
6218;BME280;3142;48.206;11.550;2023-02-20T09:45:42;96662.13;;;16.04;44.08
6218;BME280;3142;48.206;11.550;2023-02-20T09:48:23;96652.28;;;15.66;43.76
6218;BME280;3142;48.206;11.550;2023-02-20T09:50:57;96628.50;;;15.79;43.34
6218;BME280;3142;48.206;11.550;2023-02-20T09:53:28;96612.56;;;15.41;43.54
6218;BME280;3142;48.206;11.550;2023-02-20T09:55:58;96619.72;;;15.14;44.29
6218;BME280;3142;48.206;11.550;2023-02-20T09:58:27;96629.78;;;15.63;43.63
6218;BME280;3142;48.206;11.550;2023-02-20T10:00:57;96624.38;;;15.96;43.33
6218;BME280;3142;48.206;11.550;2023-02-20T10:03:30;96622.19;;;16.25;42.99
6218;BME280;3142;48.206;11.550;2023-02-20T10:06:00;96614.16;;;16.38;42.38
6218;BME280;3142;48.206;11.550;2023-02-20T10:08:27;96614.25;;;16.56;41.99
6218;BME280;3142;48.206;11.550;2023-02-20T10:10:57;96603.63;;;16.63;41.41
6218;BME280;3142;48.206;11.550;2023-02-20T10:13:38;96598.44;;;16.81;42.03
6218;BME280;3142;48.206;11.550;2023-02-20T10:16:18;96602.41;;;16.91;41.97
6218;BME280;3142;48.206;11.550;2023-02-20T10:19:00;96606.81;;;16.47;42.65
6218;BME280;3142;48.206;11.550;2023-02-20T10:21:45;96601.84;;;16.57;43.24
6218;BME280;3142;48.206;11.550;2023-02-20T10:24:25;96600.38;;;16.93;42.59
6218;BME280;3142;48.206;11.550;2023-02-20T10:27:03;96609.78;;;17.07;41.90
6218;BME280;3142;48.206;11.550;2023-02-20T10:29:37;96613.91;;;16.78;41.99
6218;BME280;3142;48.206;11.550;2023-02-20T10:32:09;96603.84;;;16.30;43.39
6218;BME280;3142;48.206;11.550;2023-02-20T10:34:42;96603.25;;;15.96;43.35
6218;BME280;3142;48.206;11.550;2023-02-20T10:37:14;96600.28;;;15.80;43.84
6218;BME280;3142;48.206;11.550;2023-02-20T10:39:48;96600.72;;;15.70;43.54
6218;BME280;3142;48.206;11.550;2023-02-20T10:42:19;96606.03;;;15.57;43.62
6218;BME280;3142;48.206;11.550;2023-02-20T10:44:51;96597.50;;;15.48;43.49
6218;BME280;3142;48.206;11.550;2023-02-20T10:47:23;96594.88;;;15.61;43.33
6218;BME280;3142;48.206;11.550;2023-02-20T10:49:56;96592.25;;;15.99;42.84
6218;BME280;3142;48.206;11.550;2023-02-20T10:52:27;96580.44;;;16.65;42.12
6218;BME280;3142;48.206;11.550;2023-02-20T10:55:01;96582.31;;;17.26;40.56
6218;BME280;3142;48.206;11.550;2023-02-20T10:57:34;96577.38;;;17.55;40.53
6218;BME280;3142;48.206;11.550;2023-02-20T11:00:04;96575.28;;;17.75;39.74
6218;BME280;3142;48.206;11.550;2023-02-20T11:02:38;96570.50;;;17.84;39.29
6218;BME280;3142;48.206;11.550;2023-02-20T11:05:10;96572.59;;;17.93;38.85
6218;BME280;3142;48.206;11.550;2023-02-20T11:07:38;96563.44;;;18.08;39.00
6218;BME280;3142;48.206;11.550;2023-02-20T11:10:05;96558.56;;;18.23;38.43
6218;BME280;3142;48.206;11.550;2023-02-20T11:12:35;96555.06;;;18.22;37.97
6218;BME280;3142;48.206;11.550;2023-02-20T11:15:06;96546.56;;;18.20;38.53
6218;BME280;3142;48.206;11.550;2023-02-20T11:17:33;96546.59;;;18.32;38.14
6218;BME280;3142;48.206;11.550;2023-02-20T11:20:03;96543.28;;;18.37;37.98
6218;BME280;3142;48.206;11.550;2023-02-20T11:22:39;96530.25;;;18.47;38.04
6218;BME280;3142;48.206;11.550;2023-02-20T11:25:17;96536.31;;;18.66;36.39
6218;BME280;3142;48.206;11.550;2023-02-20T11:27:47;96533.91;;;18.64;36.08
6218;BME280;3142;48.206;11.550;2023-02-20T11:30:26;96529.16;;;18.78;36.70
6218;BME280;3142;48.206;11.550;2023-02-20T11:33:03;96529.84;;;18.85;36.65
6218;BME280;3142;48.206;11.550;2023-02-20T11:35:37;96528.47;;;18.82;36.42
6218;BME280;3142;48.206;11.550;2023-02-20T11:38:33;96527.44;;;18.95;37.18
6218;BME280;3142;48.206;11.550;2023-02-20T11:41:27;96524.78;;;18.95;36.82
6218;BME280;3142;48.206;11.550;2023-02-20T11:44:19;96529.50;;;18.81;36.48
6218;BME280;3142;48.206;11.550;2023-02-20T11:46:47;96508.53;;;18.91;37.05
6218;BME280;3142;48.206;11.550;2023-02-20T11:49:33;96497.44;;;18.83;36.58
6218;BME280;3142;48.206;11.550;2023-02-20T11:52:07;96505.88;;;18.91;36.29
6218;BME280;3142;48.206;11.550;2023-02-20T11:54:35;96490.22;;;18.78;36.39
6218;BME280;3142;48.206;11.550;2023-02-20T11:57:04;96490.53;;;18.82;35.93
6218;BME280;3142;48.206;11.550;2023-02-20T11:59:35;96487.66;;;18.83;36.47
6218;BME280;3142;48.206;11.550;2023-02-20T12:05:05;96477.19;;;18.65;36.08
6218;BME280;3142;48.206;11.550;2023-02-20T12:07:35;96478.88;;;18.59;36.46
6218;BME280;3142;48.206;11.550;2023-02-20T12:10:10;96475.06;;;18.55;36.57
6218;BME280;3142;48.206;11.550;2023-02-20T12:12:41;96481.06;;;18.51;36.93
6218;BME280;3142;48.206;11.550;2023-02-20T12:15:12;96474.84;;;18.57;37.10
6218;BME280;3142;48.206;11.550;2023-02-20T12:17:48;96474.25;;;18.43;37.28
6218;BME280;3142;48.206;11.550;2023-02-20T12:20:19;96463.09;;;18.41;36.40
6218;BME280;3142;48.206;11.550;2023-02-20T12:22:53;96468.72;;;18.33;36.78
6218;BME280;3142;48.206;11.550;2023-02-20T12:25:26;96461.94;;;18.25;37.23
6218;BME280;3142;48.206;11.550;2023-02-20T12:28:01;96457.75;;;18.18;37.38
6218;BME280;3142;48.206;11.550;2023-02-20T12:30:44;96453.38;;;18.12;37.90
6218;BME280;3142;48.206;11.550;2023-02-20T12:33:37;96448.66;;;18.02;38.76
6218;BME280;3142;48.206;11.550;2023-02-20T12:36:17;96434.13;;;18.04;38.84
6218;BME280;3142;48.206;11.550;2023-02-20T12:38:53;96444.84;;;17.98;38.03
6218;BME280;3142;48.206;11.550;2023-02-20T12:41:30;96437.78;;;17.92;38.57
6218;BME280;3142;48.206;11.550;2023-02-20T12:44:11;96440.09;;;17.88;38.69
6218;BME280;3142;48.206;11.550;2023-02-20T12:46:49;96430.78;;;17.86;38.76
6218;BME280;3142;48.206;11.550;2023-02-20T12:49:39;96425.22;;;17.75;38.85
6218;BME280;3142;48.206;11.550;2023-02-20T12:52:23;96423.06;;;17.84;39.05
6218;BME280;3142;48.206;11.550;2023-02-20T12:54:59;96416.16;;;17.83;39.24
6218;BME280;3142;48.206;11.550;2023-02-20T12:57:42;96414.06;;;17.85;38.76
6218;BME280;3142;48.206;11.550;2023-02-20T13:00:22;96411.91;;;17.64;38.37
6218;BME280;3142;48.206;11.550;2023-02-20T13:02:55;96401.78;;;17.61;38.29
6218;BME280;3142;48.206;11.550;2023-02-20T13:05:26;96411.00;;;17.58;37.77
6218;BME280;3142;48.206;11.550;2023-02-20T13:07:55;96403.16;;;17.63;38.36
6218;BME280;3142;48.206;11.550;2023-02-20T13:10:24;96399.56;;;17.76;37.94
6218;BME280;3142;48.206;11.550;2023-02-20T13:12:53;96391.25;;;17.72;37.64
6218;BME280;3142;48.206;11.550;2023-02-20T13:15:34;96413.72;;;17.70;37.73
6218;BME280;3142;48.206;11.550;2023-02-20T13:18:08;96395.19;;;17.70;37.92
6218;BME280;3142;48.206;11.550;2023-02-20T13:20:46;96408.81;;;17.67;37.66
6218;BME280;3142;48.206;11.550;2023-02-20T13:23:26;96395.47;;;17.62;37.32
6218;BME280;3142;48.206;11.550;2023-02-20T13:25:54;96397.31;;;17.61;37.86
6218;BME280;3142;48.206;11.550;2023-02-20T13:28:27;96394.06;;;17.59;37.33
6218;BME280;3142;48.206;11.550;2023-02-20T13:31:09;96401.22;;;17.59;37.28
6218;BME280;3142;48.206;11.550;2023-02-20T13:33:39;96391.56;;;17.64;37.17
6218;BME280;3142;48.206;11.550;2023-02-20T13:36:15;96395.91;;;17.59;37.42
6218;BME280;3142;48.206;11.550;2023-02-20T13:42:00;96391.91;;;17.56;37.56
6218;BME280;3142;48.206;11.550;2023-02-20T13:44:33;96387.19;;;17.58;37.99